Time;durP1;ratioP1;P1;durP2;ratioP2;P2;SDS_P1;SDS_P2;PMS_P1;PMS_P2;Temp;Humidity;BMP_temperature;BMP_pressure;BME280_temperature;BME280_humidity;BME280_pressure;Samples;Min_cycle;Max_cycle;Signal;HPM_P1;HPM_P2
2022/06/10 07:28:44;;;;;;;11.30;3.40;;;;;;;38.47;20.70;100830.30;1789420;78;21980;-85
2022/06/10 07:31:11;;;;;;;19.75;3.62;;;;;;;38.52;20.78;100823.34;1759326;81;20962;-87
2022/06/10 07:33:37;;;;;;;4.80;3.42;;;;;;;38.43;20.69;100827.44;1758743;80;21969;-85
2022/06/10 07:36:06;;;;;;;16.17;4.12;;;;;;;38.59;20.83;100823.11;1761295;80;21030;-85
2022/06/10 07:38:33;;;;;;;9.18;3.17;;;;;;;38.90;20.07;100828.26;1747651;82;21055;-87
2022/06/10 07:43:44;;;;;;;6.58;3.22;;;;;;;38.50;20.36;100832.22;1743955;81;20968;-86
2022/06/10 07:46:15;;;;;;;9.00;3.58;;;;;;;39.06;20.54;100827.53;1740873;81;21824;-90
2022/06/10 07:48:42;;;;;;;7.47;2.85;;;;;;;38.92;20.36;100827.98;1730213;81;23803;-86
2022/06/10 07:51:09;;;;;;;17.25;3.55;;;;;;;39.27;20.47;100825.26;1732280;81;21071;-85
2022/06/10 07:53:35;;;;;;;7.58;2.60;;;;;;;39.51;20.22;100829.30;1735945;81;21063;-87
2022/06/10 07:56:01;;;;;;;17.27;3.92;;;;;;;39.79;19.52;100831.61;1748149;81;21086;-86
2022/06/10 07:58:29;;;;;;;8.48;2.70;;;;;;;39.67;19.47;100828.34;1736507;81;21099;-87
2022/06/10 08:00:57;;;;;;;13.25;3.52;;;;;;;39.84;19.32;100825.39;1742302;81;21087;-85
2022/06/10 08:03:24;;;;;;;12.47;2.62;;;;;;;39.65;18.74;100817.34;1741068;81;21138;-88
2022/06/10 08:05:50;;;;;;;9.20;2.20;;;;;;;38.98;19.32;100824.77;1745424;82;21005;-90
2022/06/10 08:08:19;;;;;;;12.47;2.40;;;;;;;38.79;18.74;100822.92;1727414;81;21047;-86
2022/06/10 08:10:45;;;;;;;8.55;2.70;;;;;;;38.74;19.30;100824.28;1732682;81;21169;-86
2022/06/10 08:13:13;;;;;;;11.53;2.65;;;;;;;38.38;19.73;100821.70;1738106;82;21542;-92
2022/06/10 08:15:40;;;;;;;6.42;2.35;;;;;;;38.62;19.94;100815.17;1740960;81;21119;-88
2022/06/10 08:18:07;;;;;;;10.28;2.15;;;;;;;38.67;19.75;100824.48;1719434;82;21004;-86
2022/06/10 08:23:24;;;;;;;5.22;2.22;;;;;;;38.63;20.47;100813.95;1689807;83;21079;-85
2022/06/10 08:25:50;;;;;;;14.20;2.70;;;;;;;38.83;19.51;100816.56;1689962;83;21055;-84
2022/06/10 08:28:17;;;;;;;8.55;2.75;;;;;;;38.72;19.56;100819.70;1689818;83;21599;-89
2022/06/10 08:30:43;;;;;;;8.83;2.80;;;;;;;38.84;19.33;100799.19;1689991;84;21070;-85
2022/06/10 08:33:09;;;;;;;8.80;2.60;;;;;;;38.53;19.77;100816.45;1690111;83;20913;-87
2022/06/10 08:35:36;;;;;;;7.28;2.70;;;;;;;38.51;19.31;100828.81;1695619;83;21814;-88
2022/06/10 08:38:06;;;;;;;9.30;2.60;;;;;;;37.94;20.26;100821.32;1714482;83;21436;-87
2022/06/10 08:40:46;;;;;;;19.07;2.98;;;;;;;37.94;19.88;100817.89;1701206;83;21081;-88
2022/06/10 08:43:20;;;;;;;8.73;2.40;;;;;;;38.39;19.68;100822.70;1695975;83;21046;-88
2022/06/10 08:46:07;;;;;;;4.20;2.20;;;;;;;38.29;19.59;100820.94;1652482;86;21102;-88
2022/06/10 08:49:18;;;;;;;7.87;2.17;;;;;;;38.31;20.11;100811.44;1655544;86;21195;-84
2022/06/10 08:52:07;;;;;;;9.65;2.10;;;;;;;38.39;20.32;100822.70;1650780;86;21634;-87
2022/06/10 08:55:04;;;;;;;6.65;2.00;;;;;;;38.40;20.12;100822.08;1655971;86;21126;-86
2022/06/10 08:57:43;;;;;;;5.33;2.10;;;;;;;38.85;19.44;100819.11;1640524;86;21031;-88
2022/06/10 09:00:23;;;;;;;8.75;2.12;;;;;;;38.41;19.42;100826.46;1656028;86;21094;-90
2022/06/10 09:03:06;;;;;;;5.20;2.00;;;;;;;38.10;19.87;100828.95;1640897;86;21186;-87
2022/06/10 09:05:37;;;;;;;5.62;1.82;;;;;;;37.92;20.26;100829.41;1651465;86;21047;-84
2022/06/10 09:08:20;;;;;;;10.30;2.15;;;;;;;38.14;19.69;100826.81;1591494;89;21084;-87
2022/06/10 09:11:06;;;;;;;6.97;2.10;;;;;;;38.42;19.43;100827.25;1554213;91;21115;-86
2022/06/10 09:13:40;;;;;;;10.45;1.80;;;;;;;38.22;19.53;100819.75;1550040;91;21134;-87
2022/06/10 09:16:20;;;;;;;20.55;1.92;;;;;;;38.04;19.88;100817.44;1553837;91;21125;-87
2022/06/10 09:18:51;;;;;;;7.55;1.70;;;;;;;37.89;19.84;100812.79;1549359;90;21059;-87
2022/06/10 09:21:42;;;;;;;2.75;1.52;;;;;;;37.66;20.19;100817.23;1570099;90;21163;-87
2022/06/10 09:24:44;;;;;;;7.05;1.72;;;;;;;37.52;20.36;100817.59;1574057;90;21126;-86
2022/06/10 09:27:30;;;;;;;5.58;2.00;;;;;;;37.60;20.16;100816.98;1570687;90;21137;-85
2022/06/10 09:30:02;;;;;;;9.98;1.50;;;;;;;37.91;20.34;100822.18;1570717;90;21145;-85
2022/06/10 09:32:53;;;;;;;8.50;1.77;;;;;;;37.85;20.29;100819.11;1565026;90;21093;-84
2022/06/10 09:35:48;;;;;;;14.53;1.90;;;;;;;37.89;19.84;100815.61;1569909;90;21155;-87
2022/06/10 09:38:57;;;;;;;2.27;1.35;;;;;;;38.22;19.94;100810.52;1570577;90;21132;-86
2022/06/10 09:41:47;;;;;;;10.45;1.40;;;;;;;37.72;19.96;100814.84;1542572;91;21160;-85
2022/06/10 09:44:37;;;;;;;3.50;1.40;;;;;;;37.13;19.48;100809.50;1588935;89;21661;-87
2022/06/10 09:47:38;;;;;;;4.08;1.60;;;;;;;36.96;20.12;100809.44;1607145;88;21519;-86
2022/06/10 09:50:36;;;;;;;6.42;0.90;;;;;;;36.76;20.22;100809.48;1609685;88;21101;-88
2022/06/10 09:53:22;;;;;;;5.12;1.40;;;;;;;36.63;20.64;100819.04;1611316;87;21099;-86
2022/06/10 09:56:19;;;;;;;2.60;1.20;;;;;;;36.19;20.79;100830.94;1608279;87;21052;-88
2022/06/10 09:59:18;;;;;;;4.20;1.20;;;;;;;36.00;20.64;100811.41;1607070;89;21247;-85
2022/06/10 10:01:52;;;;;;;24.45;1.75;;;;;;;36.22;20.84;100811.22;1606687;89;21191;-86
2022/06/10 10:04:36;;;;;;;9.60;1.55;;;;;;;36.21;20.92;100811.05;1585630;86;21060;-86
2022/06/10 10:07:40;;;;;;;5.65;1.32;;;;;;;35.45;21.51;100805.17;1638981;86;21575;-86
2022/06/10 10:10:24;;;;;;;6.37;1.80;;;;;;;35.32;21.99;100811.19;1649810;85;21079;-88
2022/06/10 10:13:29;;;;;;;9.88;1.60;;;;;;;35.55;21.76;100815.42;1654999;86;21091;-87
2022/06/10 10:16:03;;;;;;;3.27;1.22;;;;;;;35.36;21.38;100814.73;1640042;85;21048;-88
2022/06/10 10:18:56;;;;;;;2.50;1.10;;;;;;;35.21;21.66;100811.34;1643756;85;21021;-89
2022/06/10 10:21:33;;;;;;;4.87;1.10;;;;;;;35.28;21.27;100799.25;1636782;86;21067;-88
2022/06/10 10:23:59;;;;;;;4.65;1.15;;;;;;;35.12;21.22;100813.89;1632805;86;21516;-86
2022/06/10 10:26:38;;;;;;;6.30;1.27;;;;;;;35.01;22.13;100809.84;1638833;86;21105;-89
2022/06/10 10:29:13;;;;;;;5.47;1.25;;;;;;;35.16;22.67;100801.42;1641067;86;21060;-86
2022/06/10 10:32:16;;;;;;;2.22;0.98;;;;;;;35.39;21.77;100804.08;1628148;85;21046;-87
2022/06/10 10:34:48;;;;;;;4.00;1.20;;;;;;;35.36;22.15;100804.93;1626470;86;21104;-88
2022/06/10 10:37:33;;;;;;;2.15;1.07;;;;;;;35.35;22.43;100800.52;1616949;87;21588;-87
2022/06/10 10:40:15;;;;;;;11.33;1.35;;;;;;;35.34;21.53;100795.53;1613221;87;21981;-88
2022/06/10 10:42:44;;;;;;;7.45;1.30;;;;;;;35.06;21.36;100800.97;1662443;86;21014;-89
2022/06/10 10:45:33;;;;;;;6.60;1.42;;;;;;;34.38;21.62;100797.03;1667128;86;21521;-88
2022/06/10 10:48:04;;;;;;;1.85;1.15;;;;;;;34.27;21.71;100794.18;1609804;87;21256;-89
2022/06/10 10:50:34;;;;;;;6.00;1.60;;;;;;;34.35;21.85;100788.69;1559525;91;21158;-87
2022/06/10 10:53:05;;;;;;;4.28;1.20;;;;;;;34.64;21.84;100787.75;1557330;91;21079;-86
2022/06/10 10:55:36;;;;;;;3.85;1.10;;;;;;;35.04;21.91;100801.41;1558932;90;21059;-86
2022/06/10 10:58:25;;;;;;;1.57;1.00;;;;;;;34.92;21.28;100789.36;1568819;90;21157;-90
2022/06/10 11:00:59;;;;;;;2.75;1.00;;;;;;;34.68;21.47;100778.70;1537675;92;21164;-87
2022/06/10 11:03:33;;;;;;;3.35;1.20;;;;;;;34.51;21.45;100785.31;1482156;96;21079;-86
2022/06/10 11:06:04;;;;;;;4.22;1.05;;;;;;;34.67;22.17;100785.50;1480987;96;21188;-86
2022/06/10 11:08:38;;;;;;;4.53;1.17;;;;;;;35.01;22.52;100781.83;1468420;95;21236;-87
2022/06/10 11:11:28;;;;;;;6.72;1.60;;;;;;;35.24;21.96;100783.28;1484475;96;21818;-85
2022/06/10 11:14:04;;;;;;;2.55;1.12;;;;;;;35.20;22.32;100782.53;1480900;96;21730;-89
2022/06/10 11:16:43;;;;;;;2.77;1.30;;;;;;;35.11;22.03;100782.28;1485212;96;21499;-87
2022/06/10 11:19:21;;;;;;;6.25;1.45;;;;;;;35.15;21.39;100773.81;1472673;96;21168;-87
2022/06/10 11:21:55;;;;;;;3.98;1.47;;;;;;;34.72;21.57;100779.44;1431214;97;21234;-90
2022/06/10 11:24:28;;;;;;;1.52;1.02;;;;;;;34.48;21.77;100776.35;1430291;99;21578;-86
2022/06/10 11:26:59;;;;;;;4.25;1.30;;;;;;;34.45;22.35;100770.98;1431037;99;21744;-86
2022/06/10 11:29:28;;;;;;;4.85;1.37;;;;;;;34.55;21.86;100768.66;1439763;98;21162;-86
2022/06/10 11:31:59;;;;;;;3.90;1.30;;;;;;;34.46;21.92;100774.57;1439656;98;21233;-88
2022/06/10 11:34:39;;;;;;;6.72;1.25;;;;;;;34.52;22.56;100765.28;1439660;98;21237;-91
2022/06/10 11:37:35;;;;;;;6.30;1.40;;;;;;;34.67;22.22;100769.31;1440386;98;21261;-88
2022/06/10 11:40:12;;;;;;;5.87;1.50;;;;;;;34.55;22.00;100766.48;1440389;98;21888;-87
2022/06/10 11:43:01;;;;;;;2.45;1.40;;;;;;;34.64;21.85;100761.14;1426417;98;21237;-87
2022/06/10 11:45:40;;;;;;;3.08;1.40;;;;;;;34.59;21.71;100768.61;1489554;95;21400;-87
2022/06/10 11:48:28;;;;;;;4.22;1.20;;;;;;;34.63;21.93;100758.78;1505267;93;21257;-92
2022/06/10 11:51:11;;;;;;;4.10;1.27;;;;;;;34.90;21.35;100762.37;1540138;91;21078;-88
2022/06/10 11:54:00;;;;;;;4.47;1.05;;;;;;;35.28;21.16;100766.41;1540294;92;21159;-87
2022/06/10 12:00:19;;;;;;;1.50;1.10;;;;;;;35.60;21.30;100753.27;1537508;92;22029;-88
2022/06/10 12:03:18;;;;;;;3.62;1.27;;;;;;;36.15;21.47;100755.22;1512086;94;21105;-89
2022/06/10 12:06:17;;;;;;;3.70;1.25;;;;;;;35.55;21.74;100771.19;1547006;90;21062;-89
2022/06/10 12:08:59;;;;;;;7.85;1.27;;;;;;;35.39;21.82;100752.22;1635374;86;21563;-89
2022/06/10 12:11:36;;;;;;;4.37;1.30;;;;;;;35.32;21.49;100753.73;1644771;86;24402;-88
2022/06/10 12:14:19;;;;;;;7.42;1.50;;;;;;;34.86;21.63;100758.03;1645680;86;21197;-92
2022/06/10 12:16:59;;;;;;;;;;;;;;;34.68;22.18;100758.30;1631291;86;21028;-91
2022/06/10 12:19:48;;;;;;;4.22;1.10;;;;;;;34.54;21.99;100746.09;1648643;86;20510;-90
2022/06/10 12:22:15;;;;;;;19.67;5.33;;;;;;;34.50;21.58;100751.52;1648047;86;21108;-89
2022/06/10 12:24:45;;;;;;;5.50;1.92;;;;;;;34.26;21.96;100753.43;1649284;86;21665;-88
2022/06/10 12:27:19;;;;;;;2.85;1.17;;;;;;;34.36;21.92;100748.31;1649038;86;21111;-89
2022/06/10 12:30:02;;;;;;;8.38;1.17;;;;;;;34.32;21.61;100748.34;1595832;89;21161;-88
2022/06/10 12:32:42;;;;;;;6.10;2.02;;;;;;;34.25;21.30;100740.05;1577547;90;21021;-88
2022/06/10 12:35:14;;;;;;;1.85;1.20;;;;;;;34.04;21.13;100750.12;1570596;90;21118;-87
2022/06/10 12:38:17;;;;;;;8.93;1.12;;;;;;;33.83;21.48;100748.33;1573803;89;21560;-88
2022/06/10 12:40:52;;;;;;;4.05;1.10;;;;;;;33.93;22.24;100752.38;1594412;89;21578;-87
2022/06/10 12:43:35;;;;;;;4.10;1.35;;;;;;;33.97;22.33;100751.55;1604959;89;21132;-92
2022/06/10 12:46:26;;;;;;;2.33;1.22;;;;;;;34.01;21.80;100743.92;1676528;84;21088;-88
2022/06/10 12:48:52;;;;;;;4.75;1.25;;;;;;;34.20;22.28;100741.91;1665109;85;21072;-90
2022/06/10 12:51:40;;;;;;;7.37;1.30;;;;;;;34.19;21.89;100737.53;1665380;84;21105;-89
2022/06/10 12:54:21;;;;;;;10.90;1.75;;;;;;;34.09;21.85;100737.86;1677742;84;21112;-88
2022/06/10 12:56:47;;;;;;;4.08;1.15;;;;;;;34.12;21.87;100726.41;1635056;87;21488;-88
2022/06/10 12:59:24;;;;;;;5.55;1.30;;;;;;;34.20;21.72;100731.33;1618957;87;21094;-89
2022/06/10 13:01:53;;;;;;;2.98;1.07;;;;;;;34.02;21.29;100731.52;1632396;87;21563;-88
2022/06/10 13:04:27;;;;;;;4.17;1.00;;;;;;;33.98;21.77;100727.98;1615730;87;21725;-89
2022/06/10 13:07:00;;;;;;;8.00;1.27;;;;;;;33.85;21.62;100737.50;1616681;87;21179;-86
2022/06/10 13:09:31;;;;;;;5.75;1.02;;;;;;;33.67;21.69;100732.09;1616395;87;21535;-89
2022/06/10 13:12:10;;;;;;;6.55;1.17;;;;;;;33.66;21.69;100734.11;1634201;87;21101;-88
2022/06/10 13:14:44;;;;;;;4.28;0.98;;;;;;;33.63;22.15;100732.75;1635587;87;21043;-91
2022/06/10 13:17:24;;;;;;;5.15;1.47;;;;;;;33.62;22.05;100730.56;1634704;87;21113;-87
2022/06/10 13:20:07;;;;;;;2.42;1.17;;;;;;;33.61;22.42;100725.37;1643332;86;21218;-90
2022/06/10 13:22:39;;;;;;;10.38;1.62;;;;;;;33.65;22.11;100726.13;1642811;85;21070;-88
2022/06/10 13:25:13;;;;;;;6.35;1.42;;;;;;;33.59;22.11;100721.62;1655174;85;21029;-87
2022/06/10 13:27:46;;;;;;;37.65;2.87;;;;;;;33.63;22.48;100721.58;1656259;85;21230;-90
2022/06/10 13:30:27;;;;;;;18.67;1.90;;;;;;;33.76;23.46;100724.02;1678458;84;21029;-87
2022/06/10 13:32:58;;;;;;;2.02;1.10;;;;;;;33.55;22.91;100720.84;1687884;81;21773;-89
2022/06/10 13:35:33;;;;;;;1.53;1.30;;;;;;;33.38;22.64;100718.37;1754757;81;21550;-87
2022/06/10 13:38:09;;;;;;;1.67;1.20;;;;;;;33.17;22.82;100717.17;1622169;87;21018;-88
2022/06/10 13:40:39;;;;;;;5.37;1.12;;;;;;;33.24;23.35;100713.73;1618543;88;21138;-89
2022/06/10 13:43:05;;;;;;;1.32;0.93;;;;;;;33.19;22.92;100715.56;1618387;87;21109;-90
2022/06/10 13:45:36;;;;;;;5.45;1.37;;;;;;;33.19;23.63;100709.19;1616054;87;21240;-89
2022/06/10 13:48:20;;;;;;;5.10;1.10;;;;;;;33.27;23.27;100702.91;1610901;87;21104;-89
2022/06/10 13:53:54;;;;;;;5.60;1.30;;;;;;;33.25;23.36;100697.14;1616985;87;21023;-89
2022/06/10 13:56:28;;;;;;;2.67;1.30;;;;;;;33.30;23.52;100701.51;1559861;89;21120;-87
2022/06/10 13:58:56;;;;;;;3.77;1.05;;;;;;;33.21;23.12;100706.17;1557026;90;21099;-89
2022/06/10 14:01:30;;;;;;;4.10;1.10;;;;;;;33.09;23.72;100703.89;1567683;90;20999;-88
2022/06/10 14:04:19;;;;;;;4.37;1.40;;;;;;;33.20;23.96;100689.81;1528662;92;21078;-91
2022/06/10 14:06:50;;;;;;;1.75;0.90;;;;;;;33.39;23.80;100696.84;1518578;92;21125;-89
2022/06/10 14:09:27;;;;;;;2.62;1.10;;;;;;;33.27;23.22;100702.91;1440271;99;21113;-87
2022/06/10 14:12:23;;;;;;;4.33;1.20;;;;;;;33.09;23.04;100701.09;1439848;98;22909;-91
2022/06/10 14:14:51;;;;;;;2.30;1.30;;;;;;;33.07;23.37;100700.70;1443235;98;21146;-88
2022/06/10 14:17:23;;;;;;;2.42;1.05;;;;;;;33.04;23.55;100700.74;1441891;98;21179;-87
2022/06/10 14:19:58;;;;;;;;;;;;;;;33.06;23.71;100705.30;1441140;98;21165;-89
2022/06/10 14:22:31;;;;;;;2.10;1.10;;;;;;;33.04;23.19;100704.93;1440069;98;20180;-88
2022/06/10 14:25:20;;;;;;;5.03;1.00;;;;;;;32.99;23.74;100702.75;1441322;99;21359;-86
2022/06/10 14:28:03;;;;;;;1.87;1.25;;;;;;;33.05;23.30;100704.50;1442422;98;21117;-87
2022/06/10 14:30:40;;;;;;;3.02;0.80;;;;;;;33.13;23.00;100703.86;1441585;99;21644;-87
2022/06/10 14:33:23;;;;;;;4.08;1.40;;;;;;;33.20;24.02;100699.59;1440874;98;21119;-87
2022/06/10 14:35:52;;;;;;;2.65;1.30;;;;;;;33.04;23.74;100706.33;1453735;97;21076;-88
2022/06/10 14:38:23;;;;;;;3.35;1.00;;;;;;;32.85;23.54;100701.43;1461800;97;21545;-89
2022/06/10 14:41:10;;;;;;;4.25;1.27;;;;;;;32.76;23.80;100706.69;1465887;95;21607;-89
2022/06/10 14:43:47;;;;;;;4.45;1.30;;;;;;;32.68;23.45;100710.72;1464304;95;21184;-87
2022/06/10 14:46:18;;;;;;;4.37;1.20;;;;;;;32.63;23.62;100696.61;1442824;97;21117;-89
2022/06/10 14:48:46;;;;;;;3.95;1.10;;;;;;;32.65;23.60;100698.98;1440825;98;21122;-87
2022/06/10 14:51:23;;;;;;;4.60;1.00;;;;;;;32.80;23.95;100702.68;1409813;99;21558;-87
2022/06/10 14:53:58;;;;;;;3.87;1.02;;;;;;;32.81;23.38;100699.28;1471345;96;21162;-86
2022/06/10 14:56:42;;;;;;;2.92;1.05;;;;;;;32.81;23.69;100702.07;1485700;96;21115;-87
2022/06/10 14:59:28;;;;;;;3.55;1.22;;;;;;;32.98;23.93;100699.78;1483530;95;21190;-87
2022/06/10 15:01:57;;;;;;;7.10;1.40;;;;;;;33.21;24.29;100696.39;1457545;97;21108;-91
2022/06/10 15:04:23;;;;;;;3.55;1.37;;;;;;;33.26;24.32;100696.53;1479858;96;21158;-86
2022/06/10 15:06:57;;;;;;;3.45;1.40;;;;;;;33.18;24.09;100698.63;1589599;88;21043;-91
2022/06/10 15:09:39;;;;;;;4.33;1.25;;;;;;;33.08;24.30;100691.11;1614175;88;21042;-91
2022/06/10 15:12:22;;;;;;;5.83;1.30;;;;;;;33.01;24.34;100698.16;1614494;88;21078;-88
2022/06/10 15:14:49;;;;;;;13.88;2.05;;;;;;;32.94;24.54;100703.16;1616483;87;21113;-87
2022/06/10 15:17:16;;;;;;;6.20;1.37;;;;;;;32.95;24.36;100707.55;1614545;87;21172;-88
2022/06/10 15:19:43;;;;;;;18.67;1.85;;;;;;;32.89;24.25;100699.42;1611893;88;21687;-88
2022/06/10 15:22:20;;;;;;;10.60;1.72;;;;;;;32.89;24.65;100698.64;1613629;87;21125;-88
2022/06/10 15:24:48;;;;;;;6.83;1.62;;;;;;;32.89;24.54;100704.22;1704025;82;21106;-91
2022/06/10 15:27:15;;;;;;;5.67;2.00;;;;;;;32.79;24.41;100707.27;1716144;82;21044;-89
2022/06/10 15:29:40;;;;;;;3.37;1.98;;;;;;;32.63;24.82;100700.02;1720066;82;21069;-86
2022/06/10 15:32:14;;;;;;;5.05;1.77;;;;;;;32.48;25.05;100708.47;1716059;82;21585;-90
2022/06/10 15:42:31;;;;;;;7.50;1.95;;;;;;;31.99;25.44;100711.65;1597482;88;21079;-87
2022/06/10 15:44:57;;;;;;;10.38;2.30;;;;;;;32.02;25.96;100705.87;1593513;88;21627;-89
2022/06/10 15:47:23;;;;;;;7.22;1.70;;;;;;;32.04;26.37;100711.23;1589729;88;21020;-88
2022/06/10 15:49:49;;;;;;;6.25;2.17;;;;;;;32.07;26.49;100711.03;1595514;87;21011;-88
2022/06/10 15:52:36;;;;;;;15.53;2.42;;;;;;;32.11;26.45;100711.20;1606672;88;21172;-90
2022/06/10 15:58:04;;;;;;;9.17;1.70;;;;;;;32.09;27.23;100714.19;1588006;88;21102;-89
2022/06/10 16:00:31;;;;;;;15.23;1.98;;;;;;;32.21;27.85;100719.34;1599485;88;21248;-87
2022/06/10 16:02:57;;;;;;;13.88;2.15;;;;;;;32.25;27.55;100711.73;1594275;88;21187;-88
2022/06/10 16:05:30;;;;;;;10.38;1.62;;;;;;;32.19;27.71;100718.95;1603354;88;20948;-86
2022/06/10 16:07:57;;;;;;;10.63;1.60;;;;;;;32.06;27.74;100720.58;1579904;90;21261;-89
2022/06/10 16:10:23;;;;;;;5.15;1.70;;;;;;;31.97;28.20;100724.39;1557266;90;21042;-87
2022/06/10 16:13:01;;;;;;;4.53;1.62;;;;;;;31.94;28.38;100720.42;1552036;90;21170;-87
2022/06/10 16:15:41;;;;;;;6.33;1.32;;;;;;;31.88;28.69;100721.40;1609883;88;21118;-88
2022/06/10 16:18:27;;;;;;;3.27;1.72;;;;;;;31.87;29.26;100724.61;1612210;88;21645;-89
2022/06/10 16:20:56;;;;;;;2.95;1.52;;;;;;;31.86;29.34;100719.63;1581767;89;21250;-88
2022/06/10 16:23:27;;;;;;;3.42;1.47;;;;;;;31.77;29.59;100724.84;1585630;89;21077;-87
2022/06/10 16:26:04;;;;;;;2.83;1.40;;;;;;;31.64;29.95;100729.23;1538556;92;21101;-89
2022/06/10 16:28:47;;;;;;;7.40;1.75;;;;;;;31.49;30.14;100730.45;1489137;96;21151;-87
2022/06/10 16:31:27;;;;;;;8.15;1.70;;;;;;;31.41;30.05;100734.66;1485023;95;21123;-87
2022/06/10 16:33:53;;;;;;;6.37;1.60;;;;;;;31.18;30.03;100728.66;1489578;95;22008;-88
2022/06/10 16:36:23;;;;;;;4.90;1.50;;;;;;;31.02;30.14;100727.64;1494166;95;21144;-89
2022/06/10 16:38:49;;;;;;;4.70;1.32;;;;;;;30.81;30.42;100730.41;1494230;95;21097;-88
2022/06/10 16:41:28;;;;;;;4.70;1.57;;;;;;;30.70;30.76;100739.48;1494003;95;21596;-90
2022/06/10 16:43:58;;;;;;;8.33;1.37;;;;;;;30.55;31.10;100739.26;1494382;95;21212;-88
2022/06/10 16:46:32;;;;;;;4.22;1.32;;;;;;;30.34;31.24;100739.98;1493719;95;21180;-89
2022/06/10 16:48:58;;;;;;;8.75;1.40;;;;;;;30.08;31.67;100741.83;1472262;96;21743;-89
2022/06/10 16:51:24;;;;;;;5.83;1.82;;;;;;;29.83;32.14;100740.91;1472334;96;21086;-89
2022/06/10 16:53:50;;;;;;;4.05;1.82;;;;;;;29.59;32.67;100731.17;1471968;96;21086;-91
2022/06/10 16:56:25;;;;;;;5.20;1.40;;;;;;;29.44;33.40;100740.00;1439704;98;21192;-91
2022/06/10 16:58:55;;;;;;;7.15;1.62;;;;;;;29.27;34.02;100731.76;1509097;93;21269;-90
2022/06/10 17:01:29;;;;;;;8.23;1.67;;;;;;;29.08;34.48;100734.16;1522247;93;21078;-89
2022/06/10 17:03:56;;;;;;;3.58;1.62;;;;;;;28.92;34.94;100737.75;1527479;93;21079;-92
2022/06/10 17:06:24;;;;;;;5.58;1.27;;;;;;;28.73;35.27;100743.69;1526965;93;21114;-93
2022/06/10 17:08:51;;;;;;;5.35;1.45;;;;;;;28.57;35.69;100744.52;1527898;93;21126;-93
2022/06/10 17:11:25;;;;;;;11.63;1.98;;;;;;;28.41;35.96;100748.87;1531205;93;22026;-93
2022/06/10 17:13:57;;;;;;;3.40;1.40;;;;;;;28.25;36.37;100751.03;1521690;93;21231;-92
2022/06/10 17:16:28;;;;;;;20.23;8.43;;;;;;;28.07;36.84;100753.57;1526688;93;22427;-92
2022/06/10 17:18:57;;;;;;;37.55;10.08;;;;;;;27.89;37.33;100756.69;1509265;93;21846;-92
2022/06/10 17:21:24;;;;;;;14.53;5.78;;;;;;;27.68;37.74;100758.50;1477148;96;21698;-92
2022/06/10 17:23:50;;;;;;;13.55;4.33;;;;;;;27.49;38.05;100758.81;1549292;87;21639;-90
2022/06/10 17:26:27;;;;;;;6.33;2.40;;;;;;;27.30;38.29;100761.09;1625052;87;21023;-90
2022/06/10 17:28:58;;;;;;;11.70;2.60;;;;;;;27.08;38.25;100762.64;1623158;87;21083;-90
2022/06/10 17:31:27;;;;;;;15.15;2.90;;;;;;;26.88;38.55;100766.61;1582513;89;21105;-92
2022/06/10 17:33:55;;;;;;;13.45;3.42;;;;;;;26.69;38.72;100772.39;1583327;90;21067;-93
2022/06/10 17:36:28;;;;;;;9.85;4.03;;;;;;;26.52;38.93;100778.36;1605615;88;21755;-91
2022/06/10 17:38:58;;;;;;;16.97;4.20;;;;;;;26.38;39.17;100781.59;1583750;89;21081;-91
2022/06/10 17:41:35;;;;;;;10.98;3.25;;;;;;;26.21;39.33;100786.19;1584291;89;21104;-92
2022/06/10 17:44:33;;;;;;;13.85;3.85;;;;;;;26.10;40.11;100790.08;1538761;92;21091;-92
2022/06/10 17:47:05;;;;;;;17.95;3.37;;;;;;;25.95;40.19;100791.72;1538183;93;21187;-92
2022/06/10 17:49:39;;;;;;;21.33;3.85;;;;;;;25.76;40.70;100795.17;1538335;93;21200;-92
2022/06/10 17:52:18;;;;;;;13.75;3.70;;;;;;;25.63;41.25;100794.27;1538173;93;21149;-91
2022/06/10 17:54:48;;;;;;;13.58;3.75;;;;;;;25.49;41.45;100800.23;1537800;93;21185;-91
2022/06/10 17:57:40;;;;;;;16.65;3.80;;;;;;;25.31;41.72;100808.06;1538067;93;21084;-92
2022/06/10 18:00:21;;;;;;;13.45;4.00;;;;;;;25.14;42.39;100803.09;1537742;93;21616;-91
2022/06/10 18:02:55;;;;;;;8.75;3.45;;;;;;;24.95;42.81;100812.59;1533006;93;21143;-92
2022/06/10 18:05:28;;;;;;;15.05;6.15;;;;;;;24.81;43.23;100818.51;1465144;97;21159;-92
2022/06/10 18:08:01;;;;;;;25.15;9.80;;;;;;;24.71;43.58;100819.02;1465011;97;21132;-92
2022/06/10 18:10:29;;;;;;;;;;;;;;;24.62;44.19;100824.68;1467291;97;21260;-91
2022/06/10 18:15:46;;;;;;;23.30;9.68;;;;;;;24.38;45.29;100828.25;1464458;97;21077;-92
2022/06/10 18:18:17;;;;;;;27.25;9.98;;;;;;;24.26;45.94;100829.65;1464895;97;21173;-91
2022/06/10 18:20:43;;;;;;;23.22;10.40;;;;;;;24.12;46.43;100827.28;1465079;97;21129;-91
2022/06/10 18:23:29;;;;;;;22.20;7.95;;;;;;;24.02;46.65;100830.48;1445055;98;21304;-92
2022/06/10 18:26:03;;;;;;;18.73;6.30;;;;;;;23.91;46.89;100837.59;1446481;99;21127;-91
2022/06/10 18:28:31;;;;;;;18.52;5.75;;;;;;;23.80;47.41;100844.95;1464361;95;22085;-91
2022/06/10 18:31:00;;;;;;;11.38;4.15;;;;;;;23.70;47.96;100840.45;1483085;95;21613;-91
2022/06/10 18:33:33;;;;;;;10.75;4.28;;;;;;;23.61;48.24;100841.11;1492355;91;21138;-93
2022/06/10 18:35:58;;;;;;;;;;;;;;;23.52;48.30;100841.20;1623731;85;21100;-91
2022/06/10 18:38:25;;;;;;;11.03;4.30;;;;;;;23.42;48.76;100840.28;1669348;85;20186;-91
2022/06/10 18:40:52;;;;;;;9.98;4.05;;;;;;;23.30;48.61;100840.48;1669380;85;21723;-91
2022/06/10 18:43:31;;;;;;;15.40;5.10;;;;;;;23.21;49.07;100841.73;1668802;85;21526;-92
2022/06/10 18:46:19;;;;;;;14.68;4.40;;;;;;;23.11;49.74;100848.44;1669394;85;21444;-92
2022/06/10 18:48:51;;;;;;;14.70;4.50;;;;;;;23.00;49.73;100843.12;1669816;85;21121;-91
2022/06/10 18:51:31;;;;;;;13.80;4.87;;;;;;;22.91;49.83;100841.79;1601578;88;21643;-91
2022/06/10 18:54:00;;;;;;;15.20;4.47;;;;;;;22.81;49.92;100844.97;1604561;88;21595;-93
2022/06/10 18:56:31;;;;;;;13.62;4.58;;;;;;;22.74;50.97;100845.52;1601704;88;21102;-91
2022/06/10 18:58:58;;;;;;;11.75;4.50;;;;;;;22.68;51.88;100851.78;1594780;88;21039;-92
2022/06/10 19:01:34;;;;;;;19.25;6.37;;;;;;;22.61;52.08;100852.07;1580302;88;21566;-92
2022/06/10 19:04:17;;;;;;;18.75;6.08;;;;;;;22.50;51.84;100860.47;1581343;89;21075;-91
2022/06/10 19:06:45;;;;;;;16.23;6.27;;;;;;;22.36;51.71;100853.87;1511027;94;22011;-92
2022/06/10 19:09:21;;;;;;;20.23;7.08;;;;;;;22.29;51.82;100856.33;1515190;94;21669;-91
2022/06/10 19:11:48;;;;;;;30.45;7.75;;;;;;;22.20;51.94;100850.31;1508782;94;21087;-91
2022/06/10 19:14:15;;;;;;;24.77;8.45;;;;;;;22.13;52.60;100850.02;1511838;94;21125;-92
2022/06/10 19:16:42;;;;;;;27.20;9.03;;;;;;;22.06;53.43;100848.91;1508132;94;21034;-91
2022/06/10 19:19:19;;;;;;;33.98;10.60;;;;;;;22.02;53.57;100846.61;1515898;94;21109;-92
2022/06/10 19:21:47;;;;;;;43.08;13.53;;;;;;;21.98;55.10;100850.02;1514147;94;21097;-92
2022/06/10 19:24:24;;;;;;;47.80;13.18;;;;;;;21.92;55.25;100851.91;1514384;94;21155;-94
2022/06/10 19:26:53;;;;;;;53.52;13.10;;;;;;;21.89;55.44;100854.74;1536382;92;21408;-93
2022/06/10 19:29:20;;;;;;;44.05;12.43;;;;;;;21.82;55.57;100858.55;1540178;92;21616;-93
2022/06/10 19:31:51;;;;;;;45.45;13.18;;;;;;;21.77;55.86;100858.18;1537186;92;21204;-92
2022/06/10 19:34:25;;;;;;;48.40;13.55;;;;;;;21.70;55.88;100851.01;1539171;92;21690;-92
2022/06/10 19:36:56;;;;;;;40.15;11.80;;;;;;;21.66;59.76;100856.12;1451176;97;21098;-93
2022/06/10 19:39:25;;;;;;;42.35;11.20;;;;;;;21.58;59.85;100856.38;1452072;97;21525;-93
2022/06/10 19:41:53;;;;;;;37.93;10.45;;;;;;;21.52;61.08;100859.87;1452772;97;21105;-93
2022/06/10 19:44:39;;;;;;;38.20;10.23;;;;;;;21.43;59.93;100856.34;1452704;97;21182;-92
2022/06/10 19:47:33;;;;;;;35.43;11.03;;;;;;;21.38;60.77;100858.45;1455389;97;21090;-92
2022/06/10 19:50:17;;;;;;;34.75;10.53;;;;;;;21.31;64.81;100852.08;1461086;97;21171;-93
2022/06/10 19:52:45;;;;;;;32.25;9.53;;;;;;;21.21;68.32;100851.86;1462947;97;21211;-92
2022/06/10 19:55:28;;;;;;;30.20;9.00;;;;;;;21.06;65.52;100853.72;1461473;97;21172;-92
2022/06/10 19:57:58;;;;;;;22.05;8.38;;;;;;;20.98;65.29;100851.24;1464918;98;21127;-92